Weather at Nevatim Air Base

Public forecast

Using degrees Celsius for public forecast. Weather courtesy of forecast.io.

Closest aviation weather report (METAR) to Nevatim Air Base

Closest report is Ben Gurion International Airport, 48.6 nm (90.1 km) N.

2022/12/01 22:50 (retrieved 21 minutes ago)

LLBG 012250Z VRB03KT CAVOK 14/10 Q1018 NOSIG

Closest aviation forecast (TAF) to Nevatim Air Base

Forecast is more than 12 hours old.

Closest forecast is El Jora Airport, 44.8 nm (83.0 km) W.

2022/11/29 12:00 (retrieved 2 days ago)

TAF HEGR 291100Z 2912/3018 33008KT 9999 SCT025 BECMG 2918/2920 VRB03KT BECMG 3015/3017 02008KT